• Join FlightAware (Why Join?)
  • Login
  • US Flag 
11:29PM EDT


 

Airport Tracker/Info


-or-


 

Live Flight TrackerFlight Track Log ✈ AAL1459 ✈ 12-May-2013 ✈ KBOS - KORD

Flight Track Log - Related Links

Times and Time Zones

All times are in EDT time to prevent confusion due to time zone crossing. See the AAL1459 flight status page for this flight to view local times or setup timezone preferences in your user account.

Time Position Orientation Groundspeed Altitude Reporting Facility
EDT Latitude Longitude Course Direction KTS MPH feet Rate Location/Type
02:14PM 42.3160 -70.9770 121° Southeast 222 255 2,400  Level FlightAware
02:15PM 42.3120 -70.9150 95° East 272 313 3,700 2,400 Climbing FlightAware
02:15PM 42.3180 -70.8900 72° East 278 320 4,400 2,760 Climbing FlightAware
02:15PM 42.3290 -70.8380 74° East 288 331 5,800 2,820 Climbing FlightAware
02:16PM 42.3370 -70.7920 77° East 297 342 7,000 2,520 Climbing FlightAware
02:16PM 42.3460 -70.7650 66° East 312 359 7,500 2,400 Climbing FlightAware
02:16PM 42.3630 -70.7470 38° Northeast 303 349 8,200 2,760 Climbing FlightAware
02:17PM 42.3830 -70.7370 20° North 305 351 8,900 2,400 Climbing FlightAware
02:17PM 42.4180 -70.7230 16° North 319 367 9,800 2,160 Climbing FlightAware
02:18PM 42.4640 -70.7210 North 329 379 10,900 1,860 Climbing FlightAware
02:18PM 42.4850 -70.7340 335° Northwest 336 387 11,200 1,620 Climbing FlightAware
02:18PM 42.5380 -70.7850 325° Northwest 354 407 12,400 2,400 Climbing FlightAware
02:19PM 42.5760 -70.8560 306° West 348 400 14,400 2,940 Climbing FlightAware
02:20PM 42.6180 -70.9420 304° West 359 413 16,600 2,580 Climbing FlightAware
02:21PM 42.6550 -71.0170 304° West 378 435 18,100 2,400 Climbing FlightAware
02:21PM 42.6980 -71.1110 302° West 378 435 20,000 2,580 Climbing FlightAware
02:22PM 42.7130 -71.1990 283° West 359 413 21,800 2,700 Climbing FlightAware
02:23PM 42.7270 -71.2900 282° West 364 419 23,600 2,160 Climbing FlightAware
02:23PM 42.7430 -71.3880 283° West 371 427 24,900 1,680 Climbing FlightAware
02:24PM 42.7570 -71.4890 281° West 384 442 26,000 1,620 Climbing FlightAware
02:25PM 42.7730 -71.5930 282° West 391 450 27,200 1,500 Climbing FlightAware
02:25PM 42.7870 -71.6900 281° West 397 457 28,200 1,620 Climbing FlightAware
02:26PM 42.8040 -71.8060 281° West 401 461 29,500 1,500 Climbing FlightAware
02:27PM 42.8170 -71.9010 281° West 405 466 30,400 1,260 Climbing FlightAware
02:28PM 42.8320 -72.0050 281° West 410 472 31,200 1,320 Climbing FlightAware
02:28PM 42.8470 -72.1180 280° West 412 474 32,300 1,260 Climbing FlightAware
02:29PM 42.8610 -72.2190 281° West 418 481 33,000 1,080 Climbing FlightAware
02:30PM 42.8750 -72.3210 281° West 418 481 33,800 1,200 Climbing FlightAware
02:30PM 42.8910 -72.4430 280° West 420 483 34,700 1,080 Climbing FlightAware
02:31PM 42.9050 -72.5490 280° West 422 486 35,400 1,020 Climbing FlightAware
02:32PM 42.9200 -72.6620 280° West 421 484 36,200 1,260 Climbing FlightAware
02:32PM 42.9330 -72.7650 280° West 410 472 37,200 1,260 Climbing FlightAware
02:33PM 42.9470 -72.8660 281° West 407 468 37,900 540 Climbing FlightAware
02:34PM 42.9610 -72.9790 280° West 409 471 38,000 60 Climbing FlightAware
02:35PM 42.9740 -73.0850 280° West 410 472 38,000  Level FlightAware
02:35PM 42.9870 -73.1860 280° West 411 473 38,000  Level FlightAware
02:36PM 43.0010 -73.2950 280° West 414 476 38,000  Level FlightAware
02:37PM 43.0150 -73.4030 280° West 415 478 38,000  Level FlightAware
02:37PM 43.0280 -73.5040 280° West 415 478 38,000  Level FlightAware
02:38PM 43.0450 -73.6450 279° West 415 478 38,000  Level FlightAware
02:39PM 43.0590 -73.7630 279° West 412 474 38,000  Level FlightAware
02:40PM 43.0720 -73.8670 280° West 406 467 38,000  Level FlightAware
02:40PM 43.0860 -73.9830 279° West 404 465 38,000  Level FlightAware
02:41PM 43.0980 -74.0840 279° West 412 474 38,000  Level FlightAware
02:42PM 43.1110 -74.1970 279° West 413 475 38,000  Level FlightAware
02:43PM 43.1260 -74.3240 279° West 38,000  Level FlightAware
02:44PM 43.1440 -74.4770 279° West 407 468 38,000  Level FlightAware
02:45PM 43.1580 -74.6030 279° West 403 464 38,000  Level FlightAware
02:45PM 43.1710 -74.7130 279° West 405 466 38,000  Level FlightAware
02:46PM 43.1820 -74.8120 279° West 405 466 38,000  Level FlightAware
02:47PM 43.1950 -74.9330 278° West 406 467 38,000  Level FlightAware
02:47PM 43.2060 -75.0330 279° West 407 468 38,000  Level FlightAware
02:48PM 43.2190 -75.1490 279° West 407 468 38,000  Level FlightAware
02:49PM 43.2300 -75.2500 279° West 409 471 38,000  Level FlightAware
02:50PM 43.2420 -75.3670 278° West 413 475 38,000  Level FlightAware
02:50PM 43.2530 -75.4710 278° West 420 483 38,000  Level FlightAware
02:51PM 43.2650 -75.5780 279° West 421 484 38,000  Level FlightAware
02:52PM 43.2760 -75.6910 278° West 424 488 38,000  Level FlightAware
02:52PM 43.2880 -75.8040 278° West 427 491 38,000  Level FlightAware
02:53PM 43.3000 -75.9240 278° West 431 496 38,000  Level FlightAware
02:54PM 43.3110 -76.0320 278° West 433 498 38,000  Level FlightAware
02:54PM 43.3220 -76.1390 278° West 431 496 38,000  Level FlightAware
02:55PM 43.3230 -76.2480 271° West 425 489 38,000  Level FlightAware
02:56PM 43.3180 -76.3710 267° West 425 489 38,000  Level FlightAware
02:56PM 43.3150 -76.4780 268° West 425 489 38,000  Level FlightAware
02:57PM 43.3100 -76.6010 267° West 426 490 38,000  Level FlightAware
02:58PM 43.3050 -76.7080 266° West 426 490 38,000  Level FlightAware
02:59PM 43.3010 -76.8260 267° West 426 490 38,000  Level FlightAware
02:59PM 43.2960 -76.9220 266° West 424 488 38,000  Level FlightAware
03:00PM 43.2920 -77.0370 267° West 422 486 38,000  Level FlightAware
03:01PM 43.2870 -77.1480 266° West 421 484 38,000  Level FlightAware
03:01PM 43.2810 -77.2670 266° West 415 478 38,000  Level FlightAware
03:02PM 43.2760 -77.3870 267° West 412 474 38,000  Level FlightAware
03:03PM 43.2710 -77.4860 266° West 410 472 38,000  Level FlightAware
03:04PM 43.2650 -77.6080 266° West 407 468 38,000  Level FlightAware
03:04PM 43.2600 -77.7100 266° West 406 467 38,000  Level FlightAware
03:05PM 43.2550 -77.8120 266° West 406 467 38,000  Level FlightAware
03:06PM 43.2490 -77.9260 266° West 406 467 38,000  Level FlightAware
03:06PM 43.2440 -78.0300 266° West 405 466 38,000  Level FlightAware
03:07PM 43.2390 -78.1320 266° West 403 464 38,000  Level FlightAware
03:08PM 43.2320 -78.2450 265° West 401 461 38,000  Level FlightAware
03:08PM 43.2270 -78.3450 266° West 399 459 38,000  Level FlightAware
03:09PM 43.2210 -78.4590 266° West 401 461 38,000  Level FlightAware
03:10PM 43.2150 -78.5620 265° West 405 466 38,000  Level FlightAware
03:10PM 43.2090 -78.6650 265° West 407 468 38,000  Level FlightAware
03:11PM 43.2020 -78.7810 265° West 407 468 38,000  Level FlightAware
03:12PM 43.1960 -78.8760 265° West 407 468 38,000  Level FlightAware
03:13PM 43.1900 -78.9860 266° West 408 470 38,000  Level FlightAware
03:13PM 43.1830 -79.1010 265° West 408 470 38,000 -360 Level FlightAware
03:14PM 43.1760 -79.2050 265° West 405 466 37,500 -900 Descending FlightAware
03:15PM 43.1700 -79.3140 266° West 404 465 36,800 -960 Descending FlightAware
03:15PM 43.1630 -79.4210 265° West 404 465 36,200 -1,020 Descending FlightAware
03:16PM 43.1560 -79.5210 265° West 410 472 35,500 -1,020 Descending FlightAware
03:17PM 43.1480 -79.6370 265° West 407 468 34,800 -960 Descending FlightAware
03:17PM 43.1420 -79.7410 266° West 408 470 34,200 -600 Descending FlightAware
03:18PM 43.1340 -79.8570 265° West 409 471 34,000 -180 Descending FlightAware
03:19PM 43.1270 -79.9600 265° West 407 468 34,000  Level FlightAware
03:20PM 43.1180 -80.0750 264° West 407 468 34,000  Level FlightAware
03:20PM 43.1120 -80.1730 265° West 406 467 34,000  Level FlightAware
03:21PM 43.1040 -80.2800 264° West 406 467 34,000  Level FlightAware
03:22PM 43.0960 -80.3930 265° West 406 467 34,000  Level FlightAware
03:22PM 43.0880 -80.4960 264° West 405 466 34,000  Level FlightAware
03:23PM 43.0800 -80.6100 265° West 406 467 34,000  Level FlightAware
03:24PM 43.0720 -80.7100 264° West 407 468 34,000  Level FlightAware
03:24PM 43.0640 -80.8120 264° West 408 470 34,000  Level FlightAware
03:25PM 43.0550 -80.9300 264° West 408 470 34,000  Level FlightAware
03:26PM 43.0470 -81.0330 264° West 408 470 34,000  Level FlightAware
03:27PM 43.0390 -81.1350 264° West 407 468 34,000  Level FlightAware
03:27PM 43.0360 -81.2490 268° West 418 481 34,000  Level FlightAware
03:28PM 43.0340 -81.3520 269° West 419 482 34,000  Level FlightAware
03:29PM 43.0320 -81.4720 269° West 420 483 34,000  Level FlightAware
03:29PM 43.0300 -81.5750 269° West 420 483 34,000  Level FlightAware
03:30PM 43.0280 -81.7000 269° West 420 483 34,000  Level FlightAware
03:31PM 43.0260 -81.8080 269° West 421 484 34,000  Level FlightAware
03:32PM 43.0230 -81.9360 268° West 420 483 34,000  Level FlightAware
03:32PM 43.0210 -82.0450 269° West 420 483 34,000  Level FlightAware
03:33PM 43.0180 -82.1480 268° West 420 483 34,000  Level FlightAware
03:34PM 43.0150 -82.2530 268° West 421 484 34,000  Level FlightAware
03:34PM 43.0120 -82.3780 268° West 421 484 34,000  Level FlightAware
03:35PM 43.0090 -82.4920 268° West 422 486 34,000  Level FlightAware
03:36PM 43.0060 -82.5900 268° West 422 486 34,000  Level FlightAware
03:36PM 43.0020 -82.7070 267° West 423 487 34,000  Level FlightAware
03:37PM 42.9990 -82.8280 268° West 423 487 34,000  Level FlightAware
03:38PM 42.9960 -82.9180 267° West 423 487 34,000  Level FlightAware
03:38PM 42.9920 -83.0390 267° West 423 487 34,000  Level FlightAware
03:39PM 42.9890 -83.1490 268° West 422 486 34,000  Level FlightAware
03:40PM 42.9850 -83.2630 267° West 422 486 34,000  Level FlightAware
03:41PM 42.9800 -83.3850 267° West 421 484 34,000  Level FlightAware
03:41PM 42.9770 -83.4790 268° West 421 484 34,000  Level FlightAware
03:42PM 42.9710 -83.6350 267° West 420 483 34,000  Level FlightAware
03:43PM 42.9670 -83.7380 267° West 421 484 34,000  Level FlightAware
03:44PM 42.9560 -83.8600 263° West 423 487 34,000 -480 Level FlightAware
03:44PM 42.9450 -83.9780 263° West 422 486 33,300 -960 Descending FlightAware
03:45PM 42.9340 -84.0850 262° West 422 486 32,700 -900 Descending FlightAware
03:46PM 42.9240 -84.1860 262° West 427 491 32,100 -540 Descending FlightAware
03:46PM 42.9120 -84.3110 263° West 426 490 32,000 -120 Descending FlightAware
03:47PM 42.9010 -84.4200 262° West 426 490 32,000  Level FlightAware
03:48PM 42.8890 -84.5380 262° West 428 493 32,000  Level FlightAware
03:49PM 42.8780 -84.6460 262° West 429 494 32,000  Level FlightAware
03:49PM 42.8670 -84.7520 262° West 429 494 32,000  Level FlightAware
03:50PM 42.8540 -84.8740 262° West 429 494 32,000  Level FlightAware
03:51PM 42.8420 -84.9810 261° West 429 494 32,000  Level FlightAware
03:51PM 42.8300 -85.0990 262° West 430 495 32,000  Level FlightAware
03:52PM 42.8190 -85.2070 262° West 430 495 32,000  Level FlightAware
03:53PM 42.8070 -85.3110 261° West 428 493 32,000  Level FlightAware
03:53PM 42.7940 -85.4350 262° West 427 491 32,000  Level FlightAware
03:54PM 42.7790 -85.5400 259° West 431 496 32,000 -1,200 Level FlightAware
03:55PM 42.7580 -85.6560 256° West 430 495 30,300 -2,520 Descending FlightAware
03:56PM 42.7390 -85.7610 256° West 421 484 28,500 -2,580 Descending FlightAware
03:56PM 42.7220 -85.8580 257° West 406 467 26,900 -2,400 Descending FlightAware
03:57PM 42.7020 -85.9690 256° West 391 450 25,100 -2,400 Descending FlightAware
03:58PM 42.6840 -86.0640 256° West 379 436 23,500 -2,820 Descending FlightAware
03:58PM 42.6670 -86.1560 256° West 379 436 21,400 -2,520 Descending FlightAware
03:59PM 42.6480 -86.2610 256° West 372 428 20,000 -1,740 Descending FlightAware
04:00PM 42.6310 -86.3520 256° West 371 427 19,000 -1,500 Descending FlightAware
04:00PM 42.6140 -86.4400 255° West 365 420 18,000 -1,560 Descending FlightAware
04:01PM 42.5960 -86.5380 256° West 357 411 16,800 -1,680 Descending FlightAware
04:02PM 42.5800 -86.6250 256° West 355 409 15,700 -1,620 Descending FlightAware
04:02PM 42.5640 -86.7090 256° West 351 404 14,700 -1,500 Descending FlightAware
04:03PM 42.5390 -86.8020 250° West 349 402 13,600 -1,500 Descending FlightAware
04:04PM 42.5170 -86.8860 250° West 347 399 12,600 -1,500 Descending FlightAware
04:05PM 42.4930 -86.9750 250° West 340 391 11,500 -1,440 Descending FlightAware
04:05PM 42.4720 -87.0520 250° West 339 390 10,600 -1,380 Descending FlightAware
04:06PM 42.4540 -87.1170 249° West 335 386 9,900 -900 Descending FlightAware
04:06PM 42.4420 -87.1610 250° West 306 352 9,800 -240 Descending FlightAware
04:07PM 42.4280 -87.2120 250° West 273 314 9,700 -840 Descending FlightAware
04:07PM 42.4120 -87.2580 245° Southwest 277 319 9,000 -1,200 Descending FlightAware
04:07PM 42.3950 -87.2750 216° Southwest 287 330 8,800 -600 Descending FlightAware
04:08PM 42.3710 -87.2940 210° Southwest 286 329 8,600 -1,020 Descending FlightAware
04:08PM 42.3340 -87.3240 211° Southwest 279 321 7,900 -1,200 Descending FlightAware
04:09PM 42.3070 -87.3460 211° Southwest 269 310 7,500 -1,140 Descending FlightAware
04:09PM 42.2760 -87.3710 211° Southwest 262 302 6,900 -1,320 Descending FlightAware
04:10PM 42.2510 -87.3920 212° Southwest 260 299 6,300 -1,140 Descending FlightAware
04:10PM 42.2210 -87.4170 212° Southwest 259 298 5,900 -540 Descending FlightAware
04:10PM 42.2050 -87.4300 211° Southwest 258 297 5,900 -180 Level FlightAware
04:11PM 42.1790 -87.4520 212° Southwest 258 297 5,800 -780 Descending FlightAware
04:11PM 42.1630 -87.4660 213° Southwest 258 297 5,400 -1,380 Descending FlightAware
04:12PM 42.1410 -87.4850 213° Southwest 260 299 4,900 -600 Descending FlightAware
04:12PM 42.1090 -87.5120 212° Southwest 256 295 4,900  Level FlightAware
04:13PM 42.0800 -87.5370 213° Southwest 255 293 4,900 -360 Level FlightAware
04:13PM 42.0520 -87.5610 212° Southwest 243 280 4,600 -600 Descending FlightAware
04:13PM 42.0250 -87.5850 213° Southwest 223 257 4,400 -420 Descending FlightAware
04:14PM 42.0180 -87.6000 238° Southwest 210 242 4,300 -720 Descending FlightAware
04:14PM 42.0070 -87.6360 248° West 207 238 3,900 -480 Descending FlightAware
04:15PM 42.0030 -87.6660 260° West 201 231 3,900 -300 Level FlightAware
04:15PM 42.0030 -87.6830 270° West 196 226 3,700 -900 Descending FlightAware
04:15PM 42.0030 -87.7140 270° West 191 220 3,300 -1,080 Descending FlightAware
04:15PM 42.0030 -87.7240 270° West 188 216 3,100 -1,080 Descending FlightAware
04:16PM 42.0030 -87.7670 270° West 193 222 2,500 -960 Descending FlightAware
04:16PM 42.0030 -87.7850 270° West 197 227 2,300 -900 Descending FlightAware
04:17PM 42.0020 -87.8150 267° West 169 194 1,900 -1,020 Descending FlightAware
04:17PM 42.0030 -87.8430 273° West 146 168 1,400 -1,020 Descending FlightAware
04:18PM 42.0030 -87.8660 270° West 148 170 1,000 -840 Descending FlightAware
04:18PM 42.0030 -87.9000 270° West 140 161 500 -780 Descending FlightAware